createdAt,value
2018-11-21T00:00:32.220Z,1016.86
2018-11-21T00:01:42.107Z,1016.86
2018-11-21T00:02:52.260Z,1016.88
2018-11-21T00:04:01.867Z,1016.9
2018-11-21T00:05:11.751Z,1016.89
2018-11-21T00:06:21.636Z,1016.87
2018-11-21T00:07:31.247Z,1016.95
2018-11-21T00:08:40.849Z,1016.89
2018-11-21T00:09:50.723Z,1016.88
2018-11-21T00:11:00.654Z,1016.9
2018-11-21T00:12:10.811Z,1016.88
2018-11-21T00:13:20.962Z,1016.84
2018-11-21T00:14:30.843Z,1016.89
2018-11-21T00:15:40.734Z,1016.91
2018-11-21T00:16:50.941Z,1016.9
2018-11-21T00:18:01.099Z,1016.9
2018-11-21T00:19:10.697Z,1016.9
2018-11-21T00:20:20.849Z,1017.03
2018-11-21T00:21:31.000Z,1017.02
2018-11-21T00:22:40.872Z,1017.04
2018-11-21T00:23:51.021Z,1017.06
2018-11-21T00:25:01.171Z,1016.99
2018-11-21T00:26:11.349Z,1016.98
2018-11-21T00:27:21.279Z,1017.01
2018-11-21T00:28:31.446Z,1017.03
2018-11-21T00:29:41.331Z,1017.01
2018-11-21T00:30:51.489Z,1017
2018-11-21T00:32:01.651Z,1016.97
2018-11-21T00:33:11.536Z,1017.03
2018-11-21T00:34:21.685Z,1016.99
2018-11-21T00:35:31.840Z,1016.98
2018-11-21T00:36:41.714Z,1017.05
2018-11-21T00:37:51.586Z,1017.03
2018-11-21T00:39:01.466Z,1017.07
2018-11-21T00:40:11.622Z,1017.07
2018-11-21T00:41:21.504Z,1017.12
2018-11-21T00:42:31.389Z,1017.22
2018-11-21T00:43:47.103Z,1017.16
2018-11-21T00:44:56.977Z,1017.17
2018-11-21T00:46:07.139Z,1017.2
2018-11-21T00:47:17.302Z,1017.17
2018-11-21T00:48:27.453Z,1017.21
2018-11-21T00:49:37.070Z,1017.18
2018-11-21T00:50:46.952Z,1017.23
2018-11-21T00:51:56.836Z,1017.25
2018-11-21T00:53:06.989Z,1017.25
2018-11-21T00:54:16.599Z,1017.21
2018-11-21T00:55:26.755Z,1017.25
2018-11-21T00:56:36.641Z,1017.29
2018-11-21T00:57:46.803Z,1017.29
2018-11-21T00:58:56.949Z,1017.34
2018-11-21T01:00:07.105Z,1017.32
2018-11-21T01:01:17.054Z,1017.34
2018-11-21T01:02:26.941Z,1017.31
2018-11-21T01:03:37.103Z,1017.35
2018-11-21T01:04:46.984Z,1017.38
2018-11-21T01:05:57.142Z,1017.32
2018-11-21T01:07:07.021Z,1017.3
2018-11-21T01:08:17.186Z,1017.29
2018-11-21T01:09:27.331Z,1017.33
2018-11-21T01:10:37.490Z,1017.28
2018-11-21T01:11:47.098Z,1017.29
2018-11-21T01:12:57.249Z,1017.32
2018-11-21T01:14:07.401Z,1017.3
2018-11-21T01:15:17.285Z,1017.31
2018-11-21T01:16:27.438Z,1017.34
2018-11-21T01:17:37.051Z,1017.45
2018-11-21T01:18:46.938Z,1017.42
2018-11-21T01:19:57.101Z,1017.42
2018-11-21T01:21:07.264Z,1017.46
2018-11-21T01:22:16.877Z,1017.49
2018-11-21T01:23:27.037Z,1017.48
2018-11-21T01:24:37.193Z,1017.46
2018-11-21T01:25:46.798Z,1017.49
2018-11-21T01:26:56.965Z,1017.5
2018-11-21T01:28:06.895Z,1017.48
2018-11-21T01:29:16.777Z,1017.43
2018-11-21T01:30:26.663Z,1017.41
2018-11-21T01:31:36.544Z,1017.43
2018-11-21T01:32:46.753Z,1017.44
2018-11-21T01:33:56.641Z,1017.41
2018-11-21T01:35:06.802Z,1017.45
2018-11-21T01:36:16.962Z,1017.43
2018-11-21T01:37:26.567Z,1017.47
2018-11-21T01:38:36.721Z,1017.41
2018-11-21T01:39:46.876Z,1017.47
2018-11-21T01:40:57.037Z,1017.4
2018-11-21T01:42:07.206Z,1017.38
2018-11-21T01:43:17.373Z,1017.42
2018-11-21T01:44:27.247Z,1017.42
2018-11-21T01:45:36.854Z,1017.46
2018-11-21T01:46:46.744Z,1017.45
2018-11-21T01:47:56.902Z,1017.47
2018-11-21T01:49:06.249Z,1017.51
2018-11-21T01:50:16.414Z,1017.48
2018-11-21T01:51:26.296Z,1017.48
2018-11-21T01:52:36.185Z,1017.51
2018-11-21T01:53:46.352Z,1017.49
2018-11-21T01:54:56.230Z,1017.4
2018-11-21T01:56:06.438Z,1017.44
2018-11-21T01:57:16.605Z,1017.38
2018-11-21T01:58:26.755Z,1017.38
2018-11-21T01:59:36.907Z,1017.38
2018-11-21T02:00:47.070Z,1017.39
2018-11-21T02:01:57.225Z,1017.43
2018-11-21T02:03:07.107Z,1017.43
2018-11-21T02:04:16.999Z,1017.44
2018-11-21T02:05:26.909Z,1017.47
2018-11-21T02:06:37.074Z,1017.45
2018-11-21T02:07:46.950Z,1017.44
2018-11-21T02:08:56.831Z,1017.39
2018-11-21T02:10:06.989Z,1017.45
2018-11-21T02:11:16.875Z,1017.45
2018-11-21T02:12:27.023Z,1017.48
2018-11-21T02:13:36.371Z,1017.46
2018-11-21T02:14:46.604Z,1017.44
2018-11-21T02:15:56.762Z,1017.46
2018-11-21T02:17:06.639Z,1017.41
2018-11-21T02:18:16.793Z,1017.39
2018-11-21T02:19:26.944Z,1017.35
2018-11-21T02:20:36.822Z,1017.35
2018-11-21T02:21:46.978Z,1017.35
2018-11-21T02:22:56.581Z,1017.37
2018-11-21T02:24:06.742Z,1017.36
2018-11-21T02:25:16.947Z,1017.31
2018-11-21T02:26:26.821Z,1017.32
2018-11-21T02:27:36.716Z,1017.34
2018-11-21T02:28:46.596Z,1017.35
2018-11-21T02:29:56.471Z,1017.34
2018-11-21T02:31:06.681Z,1017.33
2018-11-21T02:32:16.852Z,1017.35
2018-11-21T02:33:27.012Z,1017.41
2018-11-21T02:34:36.902Z,1017.35
2018-11-21T02:35:46.780Z,1017.37
2018-11-21T02:36:56.948Z,1017.32
2018-11-21T02:38:07.099Z,1017.34
2018-11-21T02:39:16.985Z,1017.33
2018-11-21T02:40:27.135Z,1017.33
2018-11-21T02:41:37.291Z,1017.28
2018-11-21T02:42:47.456Z,1017.27
2018-11-21T02:43:57.643Z,1017.33
2018-11-21T02:45:07.528Z,1017.22
2018-11-21T02:46:17.697Z,1017.17
2018-11-21T02:47:27.580Z,1017.14
2018-11-21T02:48:36.910Z,1017.14
2018-11-21T02:49:46.788Z,1017.1
2018-11-21T02:50:56.128Z,1017.1
2018-11-21T02:52:06.292Z,1017.11
2018-11-21T02:53:16.444Z,1017.14
2018-11-21T02:54:26.609Z,1017.14
2018-11-21T02:55:36.783Z,1017.1
2018-11-21T02:56:46.940Z,1017.19
2018-11-21T02:57:56.548Z,1017.18
2018-11-21T02:59:06.713Z,1017.22
2018-11-21T03:00:16.644Z,1017.26
2018-11-21T03:01:26.807Z,1017.26
2018-11-21T03:02:36.956Z,1017.32
2018-11-21T03:03:47.112Z,1017.29
2018-11-21T03:04:57.278Z,1017.34
2018-11-21T03:06:07.505Z,1017.36
2018-11-21T03:07:17.655Z,1017.36
2018-11-21T03:08:27.808Z,1017.36
2018-11-21T03:09:37.959Z,1017.39
2018-11-21T03:10:48.114Z,1017.44
2018-11-21T03:11:58.281Z,1017.41
2018-11-21T03:13:08.456Z,1017.47
2018-11-21T03:14:18.659Z,1017.47
2018-11-21T03:15:28.282Z,1017.44
2018-11-21T03:16:38.435Z,1017.44
2018-11-21T03:17:48.586Z,1017.37
2018-11-21T03:18:58.465Z,1017.36
2018-11-21T03:20:08.616Z,1017.34
2018-11-21T03:21:18.500Z,1017.33
2018-11-21T03:22:28.385Z,1017.37
2018-11-21T03:23:38.596Z,1017.36
2018-11-21T03:24:48.748Z,1017.35
2018-11-21T03:25:58.916Z,1017.41
2018-11-21T03:27:08.821Z,1017.55
2018-11-21T03:28:19.033Z,1017.58
2018-11-21T03:29:28.960Z,1017.59
2018-11-21T03:30:39.120Z,1017.57
2018-11-21T03:31:49.370Z,1017.56
2018-11-21T03:32:59.533Z,1017.67
2018-11-21T03:34:09.427Z,1017.6
2018-11-21T03:35:19.320Z,1017.69
2018-11-21T03:36:29.268Z,1017.68
2018-11-21T03:37:39.431Z,1017.71
2018-11-21T03:38:49.589Z,1017.79
2018-11-21T03:39:59.744Z,1017.75
2018-11-21T03:41:09.678Z,1017.83
2018-11-21T03:42:19.557Z,1017.82
2018-11-21T03:43:29.171Z,1017.86
2018-11-21T03:44:39.326Z,1017.86
2018-11-21T03:45:49.207Z,1017.86
2018-11-21T03:46:58.538Z,1017.88
2018-11-21T03:48:08.692Z,1017.87
2018-11-21T03:49:18.839Z,1017.94
2018-11-21T03:50:28.997Z,1017.97
2018-11-21T03:51:38.894Z,1017.99
2018-11-21T03:52:48.505Z,1017.97
2018-11-21T03:53:58.396Z,1017.96
2018-11-21T03:55:08.561Z,1018.02
2018-11-21T03:56:18.760Z,1017.99
2018-11-21T03:57:28.648Z,1017.99
2018-11-21T03:58:38.820Z,1018.01
2018-11-21T03:59:48.986Z,1018.05
2018-11-21T04:00:58.325Z,1017.95
2018-11-21T04:02:08.208Z,1017.97
2018-11-21T04:03:18.106Z,1017.93
2018-11-21T04:04:28.268Z,1017.92
2018-11-21T04:05:37.881Z,1017.95
2018-11-21T04:06:47.505Z,1017.99
2018-11-21T04:07:57.389Z,1018.04
2018-11-21T04:09:07.550Z,1018.06
2018-11-21T04:10:16.667Z,1018.1
2018-11-21T04:11:26.274Z,1018.1
2018-11-21T04:12:36.449Z,1018.12
2018-11-21T04:13:46.335Z,1018.09
2018-11-21T04:14:56.489Z,1018.08
2018-11-21T04:16:06.371Z,1018.08
2018-11-21T04:17:16.575Z,1018.08
2018-11-21T04:18:26.465Z,1018.09
2018-11-21T04:19:36.610Z,1018.09
2018-11-21T04:20:46.769Z,1018.12
2018-11-21T04:21:56.658Z,1018.15
2018-11-21T04:23:06.563Z,1018.16
2018-11-21T04:24:16.441Z,1018.15
2018-11-21T04:25:26.616Z,1018.15
2018-11-21T04:26:36.776Z,1018.16
2018-11-21T04:27:46.932Z,1018.18
2018-11-21T04:28:57.101Z,1018.19
2018-11-21T04:30:06.711Z,1018.21
2018-11-21T04:31:16.593Z,1018.22
2018-11-21T04:32:26.476Z,1018.22
2018-11-21T04:33:36.141Z,1018.28
2018-11-21T04:34:46.294Z,1018.26
2018-11-21T04:35:56.229Z,1018.28
2018-11-21T04:37:06.115Z,1018.3
2018-11-21T04:38:15.998Z,1018.29
2018-11-21T04:39:25.902Z,1018.36
2018-11-21T04:40:36.063Z,1018.33
2018-11-21T04:41:46.215Z,1018.39
2018-11-21T04:42:56.373Z,1018.42
2018-11-21T04:44:06.532Z,1018.44
2018-11-21T04:45:16.696Z,1018.47
2018-11-21T04:46:26.859Z,1018.48
2018-11-21T04:47:36.736Z,1018.47
2018-11-21T04:48:46.902Z,1018.52
2018-11-21T04:49:57.055Z,1018.52
2018-11-21T04:51:07.239Z,1018.55
2018-11-21T04:52:17.116Z,1018.56
2018-11-21T04:53:28.041Z,1018.55
2018-11-21T04:54:36.895Z,1018.53
2018-11-21T04:55:47.061Z,1018.57
2018-11-21T04:56:57.227Z,1018.57
2018-11-21T04:58:07.374Z,1018.56
2018-11-21T04:59:17.532Z,1018.57
2018-11-21T05:00:27.415Z,1018.58
2018-11-21T05:01:37.297Z,1018.57
2018-11-21T05:02:46.946Z,1018.57
2018-11-21T05:03:56.559Z,1018.6
2018-11-21T05:05:06.713Z,1018.59
2018-11-21T05:06:16.870Z,1018.63
2018-11-21T05:07:27.029Z,1018.71
2018-11-21T05:08:37.186Z,1018.66
2018-11-21T05:09:47.337Z,1018.65
2018-11-21T05:10:57.232Z,1018.68
2018-11-21T05:12:07.164Z,1018.63
2018-11-21T05:13:17.328Z,1018.61
2018-11-21T05:14:27.483Z,1018.68
2018-11-21T05:15:37.098Z,1018.67
2018-11-21T05:16:46.986Z,1018.63
2018-11-21T05:17:56.890Z,1018.67
2018-11-21T05:19:06.768Z,1018.66
2018-11-21T05:20:16.925Z,1018.66
2018-11-21T05:21:26.817Z,1018.67
2018-11-21T05:22:36.984Z,1018.66
2018-11-21T05:23:47.144Z,1018.67
2018-11-21T05:24:57.037Z,1018.63
2018-11-21T05:26:06.649Z,1018.67
2018-11-21T05:27:16.539Z,1018.7
2018-11-21T05:28:26.691Z,1018.64
2018-11-21T05:29:36.575Z,1018.68
2018-11-21T05:30:45.902Z,1018.69
2018-11-21T05:31:55.780Z,1018.64
2018-11-21T05:33:05.678Z,1018.66
2018-11-21T05:34:15.294Z,1018.64
2018-11-21T05:35:25.453Z,1018.65
2018-11-21T05:36:35.339Z,1018.67
2018-11-21T05:37:45.496Z,1018.66
2018-11-21T05:38:55.648Z,1018.64
2018-11-21T05:40:05.261Z,1018.69
2018-11-21T05:41:15.414Z,1018.64
2018-11-21T05:42:25.297Z,1018.65
2018-11-21T05:43:35.172Z,1018.63
2018-11-21T05:44:45.072Z,1018.64
2018-11-21T05:45:54.688Z,1018.63
2018-11-21T05:47:04.864Z,1018.7
2018-11-21T05:48:14.479Z,1018.72
2018-11-21T05:49:24.686Z,1018.69
2018-11-21T05:50:33.748Z,1018.69
2018-11-21T05:51:43.899Z,1018.72
2018-11-21T05:52:53.775Z,1018.68
2018-11-21T05:54:03.380Z,1018.68
2018-11-21T05:55:12.986Z,1018.7
2018-11-21T05:56:23.138Z,1018.75
2018-11-21T05:57:32.746Z,1018.81
2018-11-21T05:58:42.904Z,1018.82
2018-11-21T05:59:52.786Z,1018.87
2018-11-21T06:01:02.966Z,1018.89
2018-11-21T06:02:13.125Z,1018.9
2018-11-21T06:03:23.273Z,1018.88
2018-11-21T06:04:33.456Z,1018.89
2018-11-21T06:05:43.037Z,1018.86
2018-11-21T06:06:52.972Z,1018.88
2018-11-21T06:08:02.850Z,1018.91
2018-11-21T06:09:12.999Z,1018.83
2018-11-21T06:10:22.895Z,1018.83
2018-11-21T06:11:32.784Z,1018.86
2018-11-21T06:12:42.665Z,1018.87
2018-11-21T06:13:52.834Z,1018.85
2018-11-21T06:15:02.716Z,1018.86
2018-11-21T06:16:12.603Z,1018.85
2018-11-21T06:17:22.764Z,1018.84
2018-11-21T06:18:32.941Z,1018.83
2018-11-21T06:19:42.823Z,1018.88
2018-11-21T06:20:52.973Z,1018.9
2018-11-21T06:22:02.303Z,1018.93
2018-11-21T06:23:12.553Z,1018.93
2018-11-21T06:24:22.711Z,1018.94
2018-11-21T06:25:32.325Z,1018.93
2018-11-21T06:26:42.493Z,1018.95
2018-11-21T06:27:52.375Z,1018.96
2018-11-21T06:29:02.533Z,1018.98
2018-11-21T06:30:12.691Z,1018.99
2018-11-21T06:31:22.855Z,1018.98
2018-11-21T06:32:32.741Z,1019.02
2018-11-21T06:33:42.643Z,1019.04
2018-11-21T06:34:52.805Z,1019.01
2018-11-21T06:36:02.975Z,1019.06
2018-11-21T06:37:12.868Z,1019.06
2018-11-21T06:38:23.029Z,1019.14
2018-11-21T06:39:33.241Z,1019.12
2018-11-21T06:40:43.123Z,1019.13
2018-11-21T06:41:53.282Z,1019.17
2018-11-21T06:43:03.168Z,1019.17
2018-11-21T06:44:13.054Z,1019.18
2018-11-21T06:45:22.670Z,1019.24
2018-11-21T06:46:32.288Z,1019.23
2018-11-21T06:47:42.437Z,1019.24
2018-11-21T06:48:52.049Z,1019.22
2018-11-21T06:50:01.655Z,1019.25
2018-11-21T06:51:11.545Z,1019.25
2018-11-21T06:52:22.172Z,1019.3
2018-11-21T06:53:32.475Z,1019.33
2018-11-21T06:54:42.625Z,1019.32
2018-11-21T06:55:52.504Z,1019.4
2018-11-21T06:57:02.664Z,1019.35
2018-11-21T06:58:12.053Z,1019.42
2018-11-21T06:59:21.935Z,1019.45
2018-11-21T07:00:31.824Z,1019.49
2018-11-21T07:01:41.699Z,1019.51
2018-11-21T07:02:51.598Z,1019.52
2018-11-21T07:04:01.537Z,1019.55
2018-11-21T07:05:11.444Z,1019.62
2018-11-21T07:06:21.602Z,1019.62
2018-11-21T07:07:31.759Z,1019.6
2018-11-21T07:08:41.912Z,1019.6
2018-11-21T07:09:52.067Z,1019.68
2018-11-21T07:11:02.240Z,1019.6
2018-11-21T07:12:12.401Z,1019.67
2018-11-21T07:13:22.560Z,1019.59
2018-11-21T07:14:32.714Z,1019.61
2018-11-21T07:15:42.874Z,1019.68
2018-11-21T07:16:53.030Z,1019.65
2018-11-21T07:18:02.651Z,1019.64
2018-11-21T07:19:12.539Z,1019.65
2018-11-21T07:20:22.418Z,1019.72
2018-11-21T07:21:32.356Z,1019.73
2018-11-21T07:22:42.240Z,1019.73
2018-11-21T07:23:51.574Z,1019.73
2018-11-21T07:25:01.459Z,1019.74
2018-11-21T07:26:11.353Z,1019.79
2018-11-21T07:27:21.539Z,1019.8
2018-11-21T07:28:31.421Z,1019.86
2018-11-21T07:29:41.298Z,1019.86
2018-11-21T07:30:51.458Z,1019.96
2018-11-21T07:32:01.335Z,1019.9
2018-11-21T07:33:11.498Z,1019.91
2018-11-21T07:34:21.658Z,1019.91
2018-11-21T07:35:31.891Z,1020
2018-11-21T07:36:42.050Z,1019.98
2018-11-21T07:37:51.934Z,1020.02
2018-11-21T07:39:01.831Z,1020.08
2018-11-21T07:40:11.711Z,1020.08
2018-11-21T07:41:21.866Z,1020.12
2018-11-21T07:42:32.028Z,1020.15
2018-11-21T07:43:42.194Z,1020.13
2018-11-21T07:44:52.358Z,1020.22
2018-11-21T07:46:02.530Z,1020.19
2018-11-21T07:47:12.453Z,1020.18
2018-11-21T07:48:27.091Z,1020.25
2018-11-21T07:49:36.964Z,1020.32
2018-11-21T07:50:47.114Z,1020.37
2018-11-21T07:52:02.712Z,1020.38
2018-11-21T07:53:12.602Z,1020.43
2018-11-21T07:54:22.756Z,1020.51
2018-11-21T07:55:32.635Z,1020.51
2018-11-21T07:56:42.529Z,1020.53
2018-11-21T07:57:52.684Z,1020.53
2018-11-21T07:59:02.297Z,1020.58
2018-11-21T08:00:12.505Z,1020.56
2018-11-21T08:01:22.133Z,1020.51
2018-11-21T08:02:32.300Z,1020.53
2018-11-21T08:03:42.221Z,1020.53
2018-11-21T08:04:52.101Z,1020.5
2018-11-21T08:06:02.253Z,1020.51
2018-11-21T08:07:12.417Z,1020.54
2018-11-21T08:08:22.573Z,1020.53
2018-11-21T08:09:32.737Z,1020.51
2018-11-21T08:10:42.346Z,1020.57
2018-11-21T08:11:52.492Z,1020.55
2018-11-21T08:13:02.651Z,1020.59
2018-11-21T08:14:12.309Z,1020.61
2018-11-21T08:15:22.465Z,1020.61
2018-11-21T08:16:32.353Z,1020.6
2018-11-21T08:17:42.562Z,1020.59
2018-11-21T08:18:52.444Z,1020.64
2018-11-21T08:20:02.325Z,1020.67
2018-11-21T08:21:11.940Z,1020.66
2018-11-21T08:22:22.092Z,1020.64
2018-11-21T08:23:31.982Z,1020.67
2018-11-21T08:24:41.862Z,1020.71
2018-11-21T08:25:52.017Z,1020.69
2018-11-21T08:27:02.168Z,1020.65
2018-11-21T08:28:12.054Z,1020.72
2018-11-21T08:29:21.662Z,1020.7
2018-11-21T08:30:31.821Z,1020.76
2018-11-21T08:31:41.702Z,1020.73
2018-11-21T08:32:51.580Z,1020.69
2018-11-21T08:34:01.469Z,1020.7
2018-11-21T08:35:11.356Z,1020.65
2018-11-21T08:36:21.528Z,1020.73
2018-11-21T08:37:31.415Z,1020.73
2018-11-21T08:38:41.300Z,1020.71
2018-11-21T08:39:51.471Z,1020.77
2018-11-21T08:41:01.632Z,1020.76
2018-11-21T08:42:11.515Z,1020.79
2018-11-21T08:43:21.461Z,1020.74
2018-11-21T08:44:31.347Z,1020.75
2018-11-21T08:45:41.235Z,1020.81
2018-11-21T08:46:51.390Z,1020.8
2018-11-21T08:48:01.552Z,1020.77
2018-11-21T08:49:11.706Z,1020.85
2018-11-21T08:50:21.867Z,1020.82
2018-11-21T08:51:32.025Z,1020.84
2018-11-21T08:52:41.639Z,1020.91
2018-11-21T08:53:51.795Z,1020.89
2018-11-21T08:55:01.677Z,1020.86
2018-11-21T08:56:16.810Z,1020.85
2018-11-21T08:57:26.695Z,1020.87
2018-11-21T08:58:36.587Z,1020.91
2018-11-21T08:59:46.745Z,1020.89
2018-11-21T09:00:56.906Z,1020.87
2018-11-21T09:02:07.066Z,1020.93
2018-11-21T09:03:17.222Z,1020.91
2018-11-21T09:04:27.381Z,1020.9
2018-11-21T09:05:37.533Z,1020.87
2018-11-21T09:06:47.697Z,1020.94
2018-11-21T09:07:57.345Z,1020.9
2018-11-21T09:09:07.239Z,1020.97
2018-11-21T09:10:17.407Z,1020.92
2018-11-21T09:11:27.575Z,1020.98
2018-11-21T09:12:37.467Z,1021
2018-11-21T09:13:47.621Z,1021.01
2018-11-21T09:15:01.171Z,1021.06
2018-11-21T09:16:11.332Z,1021.03
2018-11-21T09:17:21.486Z,1021.08
2018-11-21T09:18:31.379Z,1021.07
2018-11-21T09:19:41.542Z,1021.08
2018-11-21T09:20:51.427Z,1021.05
2018-11-21T09:22:01.593Z,1021.06
2018-11-21T09:23:11.482Z,1021.04
2018-11-21T09:24:21.369Z,1021.06
2018-11-21T09:25:31.526Z,1021.05
2018-11-21T09:26:41.688Z,1021.05
2018-11-21T09:27:51.893Z,1021.06
2018-11-21T09:29:02.056Z,1021.03
2018-11-21T09:30:12.215Z,1021.04
2018-11-21T09:31:22.376Z,1021.08
2018-11-21T09:32:32.265Z,1021.08
2018-11-21T09:33:42.165Z,1021.1
2018-11-21T09:34:52.322Z,1021.1
2018-11-21T09:36:02.490Z,1021.12
2018-11-21T09:37:12.653Z,1021.12
2018-11-21T09:38:22.814Z,1021.07
2018-11-21T09:39:32.428Z,1021.08
2018-11-21T09:40:42.582Z,1021.06
2018-11-21T09:41:52.192Z,1021.11
2018-11-21T09:43:02.345Z,1021.08
2018-11-21T09:44:12.236Z,1021.12
2018-11-21T09:45:22.412Z,1021.12
2018-11-21T09:46:32.298Z,1021.11
2018-11-21T09:47:42.459Z,1021.13
2018-11-21T09:48:52.655Z,1021.15
2018-11-21T09:50:01.997Z,1021.15
2018-11-21T09:51:11.891Z,1021.17
2018-11-21T09:52:22.050Z,1021.17
2018-11-21T09:53:32.207Z,1021.18
2018-11-21T09:54:42.086Z,1021.23
2018-11-21T09:55:52.248Z,1021.24
2018-11-21T09:57:01.918Z,1021.26
2018-11-21T09:58:11.823Z,1021.26
2018-11-21T09:59:21.711Z,1021.31
2018-11-21T10:00:31.606Z,1021.28
2018-11-21T10:01:41.767Z,1021.29
2018-11-21T10:02:51.658Z,1021.24
2018-11-21T10:04:01.546Z,1021.31
2018-11-21T10:05:11.482Z,1021.32
2018-11-21T10:06:21.371Z,1021.33
2018-11-21T10:07:31.544Z,1021.33
2018-11-21T10:08:41.481Z,1021.33
2018-11-21T10:09:51.367Z,1021.36
2018-11-21T10:11:00.977Z,1021.31
2018-11-21T10:12:10.588Z,1021.28
2018-11-21T10:13:20.756Z,1021.31
2018-11-21T10:14:30.647Z,1021.36
2018-11-21T10:15:40.536Z,1021.32
2018-11-21T10:16:50.424Z,1021.33
2018-11-21T10:18:00.305Z,1021.31
2018-11-21T10:19:10.481Z,1021.31
2018-11-21T10:20:20.642Z,1021.31
2018-11-21T10:21:30.532Z,1021.34
2018-11-21T10:22:40.156Z,1021.32
2018-11-21T10:23:50.313Z,1021.38
2018-11-21T10:25:00.487Z,1021.33
2018-11-21T10:26:10.376Z,1021.4
2018-11-21T10:27:20.545Z,1021.39
2018-11-21T10:28:29.882Z,1021.38
2018-11-21T10:29:40.053Z,1021.4
2018-11-21T10:30:50.223Z,1021.39
2018-11-21T10:32:00.377Z,1021.42
2018-11-21T10:33:10.538Z,1021.39
2018-11-21T10:34:20.417Z,1021.33
2018-11-21T10:35:30.639Z,1021.4
2018-11-21T10:36:43.782Z,1021.39
2018-11-21T10:37:53.683Z,1021.41
2018-11-21T10:39:03.572Z,1021.38
2018-11-21T10:40:13.744Z,1021.42
2018-11-21T10:41:23.655Z,1021.38
2018-11-21T10:42:33.825Z,1021.42
2018-11-21T10:43:43.753Z,1021.49
2018-11-21T10:44:53.367Z,1021.47
2018-11-21T10:46:03.517Z,1021.45
2018-11-21T10:47:13.688Z,1021.47
2018-11-21T10:48:23.854Z,1021.52
2018-11-21T10:49:34.057Z,1021.53
2018-11-21T10:50:43.941Z,1021.54
2018-11-21T10:51:54.102Z,1021.49
2018-11-21T10:53:04.257Z,1021.59
2018-11-21T10:54:14.418Z,1021.6
2018-11-21T10:55:24.027Z,1021.58
2018-11-21T10:56:33.913Z,1021.55
2018-11-21T10:57:43.799Z,1021.54
2018-11-21T10:58:53.953Z,1021.56
2018-11-21T11:00:04.116Z,1021.54
2018-11-21T11:01:14.332Z,1021.56
2018-11-21T11:02:24.496Z,1021.59
2018-11-21T11:03:34.388Z,1021.65
2018-11-21T11:04:44.292Z,1021.63
2018-11-21T11:05:54.452Z,1021.59
2018-11-21T11:07:04.618Z,1021.62
2018-11-21T11:08:14.786Z,1021.64
2018-11-21T11:09:24.951Z,1021.6
2018-11-21T11:10:34.850Z,1021.62
2018-11-21T11:11:45.009Z,1021.57
2018-11-21T11:12:54.901Z,1021.56
2018-11-21T11:14:04.790Z,1021.5
2018-11-21T11:15:14.951Z,1021.54
2018-11-21T11:16:24.843Z,1021.53
2018-11-21T11:17:35.002Z,1021.58
2018-11-21T11:18:45.216Z,1021.59
2018-11-21T11:19:55.391Z,1021.59
2018-11-21T11:21:09.129Z,1021.57
2018-11-21T11:22:19.522Z,1021.51
2018-11-21T11:23:29.402Z,1021.52
2018-11-21T11:24:39.571Z,1021.53
2018-11-21T11:25:49.455Z,1021.51
2018-11-21T11:26:59.618Z,1021.51
2018-11-21T11:28:10.284Z,1021.49
2018-11-21T11:29:22.171Z,1021.48
2018-11-21T11:30:32.331Z,1021.51
2018-11-21T11:31:42.487Z,1021.5
2018-11-21T11:32:52.374Z,1021.53
2018-11-21T11:34:02.536Z,1021.51
2018-11-21T11:35:12.702Z,1021.56
2018-11-21T11:36:22.630Z,1021.53
2018-11-21T11:37:32.791Z,1021.55
2018-11-21T11:38:42.671Z,1021.53
2018-11-21T11:39:52.835Z,1021.57
2018-11-21T11:41:02.987Z,1021.53
2018-11-21T11:42:13.193Z,1021.57
2018-11-21T11:43:23.356Z,1021.6
2018-11-21T11:44:33.515Z,1021.6
2018-11-21T11:45:43.400Z,1021.74
2018-11-21T11:46:53.293Z,1021.69
2018-11-21T11:48:03.454Z,1021.71
2018-11-21T11:49:13.606Z,1021.77
2018-11-21T11:50:23.492Z,1021.76
2018-11-21T11:51:33.662Z,1021.79
2018-11-21T11:52:43.544Z,1021.81
2018-11-21T11:53:53.706Z,1021.84
2018-11-21T11:55:03.592Z,1021.76
2018-11-21T11:56:13.483Z,1021.78
2018-11-21T11:57:23.652Z,1021.8
2018-11-21T11:58:33.269Z,1021.79
2018-11-21T11:59:43.156Z,1021.8
2018-11-21T12:00:53.308Z,1021.76
2018-11-21T12:02:03.193Z,1021.78
2018-11-21T12:03:16.079Z,1021.83
2018-11-21T12:04:25.962Z,1021.75
2018-11-21T12:05:35.847Z,1021.75
2018-11-21T12:06:46.017Z,1021.72
2018-11-21T12:07:55.889Z,1021.74
2018-11-21T12:09:05.509Z,1021.74
2018-11-21T12:10:15.669Z,1021.75
2018-11-21T12:11:25.564Z,1021.71
2018-11-21T12:12:39.952Z,1021.68
2018-11-21T12:13:50.153Z,1021.69
2018-11-21T12:15:00.306Z,1021.73
2018-11-21T12:16:09.922Z,1021.72
2018-11-21T12:17:20.079Z,1021.8
2018-11-21T12:18:29.957Z,1021.75
2018-11-21T12:19:39.852Z,1021.82
2018-11-21T12:20:50.018Z,1021.79
2018-11-21T12:22:00.176Z,1021.76
2018-11-21T12:23:10.379Z,1021.79
2018-11-21T12:24:21.156Z,1021.77
2018-11-21T12:25:31.312Z,1021.79
2018-11-21T12:26:41.198Z,1021.79
2018-11-21T12:27:50.818Z,1021.8
2018-11-21T12:29:01.024Z,1021.84
2018-11-21T12:30:10.920Z,1021.77
2018-11-21T12:31:21.097Z,1021.8
2018-11-21T12:32:31.271Z,1021.77
2018-11-21T12:33:46.690Z,1021.79
2018-11-21T12:34:56.300Z,1021.77
2018-11-21T12:36:06.479Z,1021.79
2018-11-21T12:37:16.382Z,1021.78
2018-11-21T12:38:26.550Z,1021.74
2018-11-21T12:39:35.889Z,1021.74
2018-11-21T12:40:45.514Z,1021.81
2018-11-21T12:41:55.665Z,1021.81
2018-11-21T12:43:05.552Z,1021.83
2018-11-21T12:44:21.020Z,1021.85
2018-11-21T12:45:30.637Z,1021.88
2018-11-21T12:46:40.516Z,1021.9
2018-11-21T12:47:50.677Z,1021.86
2018-11-21T12:49:00.828Z,1021.87
2018-11-21T12:50:10.987Z,1021.91
2018-11-21T12:51:21.147Z,1021.89
2018-11-21T12:52:31.046Z,1021.89
2018-11-21T12:53:41.208Z,1021.94
2018-11-21T12:54:51.371Z,1021.91
2018-11-21T12:56:00.982Z,1021.92
2018-11-21T12:57:10.864Z,1021.91
2018-11-21T12:58:20.924Z,1021.86
2018-11-21T12:59:31.006Z,1021.91
2018-11-21T13:00:40.953Z,1021.87
2018-11-21T13:01:50.933Z,1021.8
2018-11-21T13:03:01.085Z,1021.8
2018-11-21T13:04:11.605Z,1021.75
2018-11-21T13:05:21.786Z,1021.77
2018-11-21T13:06:31.679Z,1021.83
2018-11-21T13:07:41.565Z,1021.82
2018-11-21T13:08:51.729Z,1021.86
2018-11-21T13:10:01.668Z,1021.89
2018-11-21T13:11:11.557Z,1021.85
2018-11-21T13:12:21.543Z,1021.85
2018-11-21T13:13:31.716Z,1021.86
2018-11-21T13:14:41.606Z,1021.89
2018-11-21T13:15:51.589Z,1021.88
2018-11-21T13:17:01.802Z,1021.92
2018-11-21T13:18:11.738Z,1021.9
2018-11-21T13:19:21.949Z,1021.96
2018-11-21T13:20:32.107Z,1022.01
2018-11-21T13:21:42.053Z,1022.05
2018-11-21T13:22:51.939Z,1022
2018-11-21T13:24:01.556Z,1022.04
2018-11-21T13:25:11.446Z,1022.06
2018-11-21T13:26:21.346Z,1022.01
2018-11-21T13:27:31.226Z,1022.06
2018-11-21T13:28:41.110Z,1021.94
2018-11-21T13:29:50.724Z,1022.03
2018-11-21T13:31:00.342Z,1022.02
2018-11-21T13:32:10.515Z,1022.02
2018-11-21T13:33:20.389Z,1022.03
2018-11-21T13:34:30.279Z,1022.07
2018-11-21T13:35:40.434Z,1022.01
2018-11-21T13:36:50.649Z,1022.07
2018-11-21T13:38:00.254Z,1022.09
2018-11-21T13:39:10.412Z,1022.08
2018-11-21T13:40:20.566Z,1022.05
2018-11-21T13:41:30.727Z,1022.1
2018-11-21T13:42:40.341Z,1022.04
2018-11-21T13:43:50.238Z,1022.06
2018-11-21T13:45:00.398Z,1022.1
2018-11-21T13:46:10.288Z,1022.11
2018-11-21T13:47:19.908Z,1022.09
2018-11-21T13:48:30.073Z,1022.12
2018-11-21T13:49:40.222Z,1022.14
2018-11-21T13:50:50.380Z,1022.2
2018-11-21T13:52:00.537Z,1022.17
2018-11-21T13:53:10.424Z,1022.14
2018-11-21T13:54:20.585Z,1022.16
2018-11-21T13:55:30.744Z,1022.19
2018-11-21T13:56:40.902Z,1022.22
2018-11-21T13:57:50.785Z,1022.22
2018-11-21T13:59:00.672Z,1022.21
2018-11-21T14:00:10.563Z,1022.23
2018-11-21T14:01:20.724Z,1022.21
2018-11-21T14:02:30.888Z,1022.23
2018-11-21T14:03:41.045Z,1022.26
2018-11-21T14:04:51.208Z,1022.21
2018-11-21T14:06:01.095Z,1022.24
2018-11-21T14:07:11.256Z,1022.25
2018-11-21T14:08:21.445Z,1022.18
2018-11-21T14:09:31.610Z,1022.23
2018-11-21T14:10:41.507Z,1022.13